createdAt,value
2022-08-11T00:01:07.792Z,23.20
2022-08-11T00:06:06.143Z,23.10
2022-08-11T00:11:08.009Z,23.10
2022-08-11T00:16:15.291Z,23.00
2022-08-11T00:21:14.361Z,22.90
2022-08-11T00:26:13.688Z,22.90
2022-08-11T00:31:25.263Z,22.80
2022-08-11T00:36:29.627Z,22.70
2022-08-11T00:41:35.351Z,22.70
2022-08-11T00:46:47.178Z,22.60
2022-08-11T00:52:05.661Z,22.50
2022-08-11T00:57:43.199Z,22.40
2022-08-11T01:03:08.125Z,22.30
2022-08-11T01:08:57.806Z,22.20
2022-08-11T01:14:34.152Z,22.10
2022-08-11T01:20:45.645Z,21.90
2022-08-11T01:26:02.294Z,21.90
2022-08-11T01:31:57.842Z,21.80
2022-08-11T01:37:28.346Z,21.70
2022-08-11T01:43:19.897Z,21.70
2022-08-11T01:48:26.201Z,21.70
2022-08-11T01:53:35.742Z,21.70
2022-08-11T01:58:44.474Z,21.70
2022-08-11T02:03:51.206Z,21.70
2022-08-11T02:08:56.797Z,21.70
2022-08-11T02:14:03.976Z,21.60
2022-08-11T02:19:29.768Z,21.50
2022-08-11T02:24:32.263Z,21.40
2022-08-11T02:29:42.391Z,21.30
2022-08-11T02:35:00.115Z,21.30
2022-08-11T02:40:15.707Z,21.20
2022-08-11T02:45:47.315Z,21.20
2022-08-11T02:51:00.721Z,21.10
2022-08-11T02:56:08.717Z,21.00
2022-08-11T03:01:16.629Z,20.90
2022-08-11T03:06:27.972Z,20.80
2022-08-11T03:12:04.098Z,20.70
2022-08-11T03:17:11.291Z,20.60
2022-08-11T03:22:14.503Z,20.50
2022-08-11T03:27:25.163Z,20.50
2022-08-11T03:32:30.582Z,20.60
2022-08-11T03:37:52.329Z,20.50
2022-08-11T03:42:59.367Z,20.50
2022-08-11T03:48:09.841Z,20.40
2022-08-11T03:53:17.789Z,20.40
2022-08-11T03:59:06.451Z,20.40
2022-08-11T04:04:51.437Z,20.30
2022-08-11T04:10:23.149Z,20.30
2022-08-11T04:16:12.219Z,20.20
2022-08-11T04:21:38.759Z,20.10
2022-08-11T04:27:08.810Z,20.20
2022-08-11T04:32:32.586Z,20.30
2022-08-11T04:37:58.254Z,20.30
2022-08-11T04:44:02.728Z,20.30
2022-08-11T04:49:36.882Z,20.40
2022-08-11T04:55:18.728Z,20.50
2022-08-11T05:00:37.353Z,20.60
2022-08-11T05:05:56.454Z,20.70
2022-08-11T05:11:12.939Z,20.80
2022-08-11T05:16:36.354Z,20.90
2022-08-11T05:21:53.865Z,21.00
2022-08-11T05:27:15.653Z,21.10
2022-08-11T05:32:36.037Z,21.20
2022-08-11T05:37:41.740Z,21.40
2022-08-11T05:43:02.971Z,21.40
2022-08-11T05:48:18.962Z,21.40
2022-08-11T05:53:45.810Z,21.60
2022-08-11T05:58:50.927Z,21.80
2022-08-11T06:04:09.366Z,22.00
2022-08-11T06:09:08.894Z,22.00
2022-08-11T06:14:10.663Z,22.10
2022-08-11T06:19:10.397Z,22.20
2022-08-11T06:24:14.292Z,22.30
2022-08-11T06:29:18.582Z,22.50
2022-08-11T06:34:30.153Z,22.60
2022-08-11T06:39:34.977Z,22.60
2022-08-11T06:44:41.903Z,22.60
2022-08-11T06:50:03.076Z,22.80
2022-08-11T06:55:06.703Z,23.10
2022-08-11T07:00:25.329Z,23.50
2022-08-11T07:05:29.987Z,23.80
2022-08-11T07:11:05.254Z,24.00
2022-08-11T07:16:12.485Z,24.30
2022-08-11T07:22:01.887Z,24.50
2022-08-11T07:27:13.718Z,24.70
2022-08-11T07:32:23.297Z,24.90
2022-08-11T07:37:24.008Z,25.10
2022-08-11T07:42:27.782Z,25.40
2022-08-11T07:47:46.109Z,25.60
2022-08-11T07:52:44.696Z,25.70
2022-08-11T07:58:19.194Z,25.80
2022-08-11T08:03:37.327Z,26.20
2022-08-11T08:08:54.982Z,26.50
2022-08-11T08:14:12.168Z,26.80
2022-08-11T08:19:13.878Z,27.00
2022-08-11T08:24:12.807Z,27.30
2022-08-11T08:29:28.869Z,27.50
2022-08-11T08:34:29.230Z,27.50
2022-08-11T08:39:33.649Z,27.80
2022-08-11T08:44:40.640Z,28.30
2022-08-11T08:49:49.369Z,28.50
2022-08-11T08:54:50.615Z,28.40
2022-08-11T08:59:51.515Z,28.70
2022-08-11T09:04:51.486Z,29.20
2022-08-11T09:09:51.137Z,29.50
2022-08-11T09:15:04.360Z,30.20
2022-08-11T09:20:07.231Z,31.30
2022-08-11T09:25:19.806Z,32.50
2022-08-11T09:30:17.859Z,33.40
2022-08-11T09:35:18.063Z,34.30
2022-08-11T09:40:33.500Z,35.50
2022-08-11T09:45:40.307Z,36.00
2022-08-11T09:50:41.051Z,37.00
2022-08-11T09:55:39.970Z,37.40
2022-08-11T10:00:40.237Z,38.00
2022-08-11T10:05:58.606Z,38.20
2022-08-11T10:10:57.715Z,36.70
2022-08-11T10:16:14.808Z,35.50
2022-08-11T10:21:28.214Z,34.90
2022-08-11T10:26:46.891Z,35.10
2022-08-11T10:32:04.636Z,35.60
2022-08-11T10:37:14.977Z,35.90
2022-08-11T10:42:55.342Z,35.50
2022-08-11T10:47:50.064Z,35.40
2022-08-11T10:53:08.924Z,35.40
2022-08-11T10:58:24.733Z,35.40
2022-08-11T11:03:23.996Z,35.30
2022-08-11T11:08:49.546Z,35.30
2022-08-11T11:14:10.709Z,35.50
2022-08-11T11:19:11.232Z,35.80
2022-08-11T11:24:22.768Z,36.10
2022-08-11T11:29:47.246Z,36.00
2022-08-11T11:35:09.016Z,35.90
2022-08-11T11:40:12.741Z,35.80
2022-08-11T11:45:22.828Z,35.90
2022-08-11T11:50:31.458Z,36.10
2022-08-11T11:55:33.830Z,35.60
2022-08-11T12:00:50.119Z,35.40
2022-08-11T12:05:48.763Z,35.30
2022-08-11T12:11:15.045Z,35.40
2022-08-11T12:16:35.015Z,34.50
2022-08-11T12:21:33.363Z,34.00
2022-08-11T12:27:14.938Z,34.50
2022-08-11T12:32:12.153Z,35.00
2022-08-11T12:37:13.673Z,34.90
2022-08-11T12:42:34.585Z,35.00
2022-08-11T12:48:12.272Z,35.30
2022-08-11T12:53:13.762Z,35.30
2022-08-11T12:58:17.430Z,35.60
2022-08-11T13:03:34.051Z,35.50
2022-08-11T13:08:36.446Z,35.40
2022-08-11T13:13:54.949Z,35.30
2022-08-11T13:18:54.754Z,35.30
2022-08-11T13:24:00.485Z,35.20
2022-08-11T13:29:02.127Z,35.20
2022-08-11T13:39:04.372Z,35.40
2022-08-11T13:44:04.339Z,35.50
2022-08-11T13:49:03.059Z,35.30
2022-08-11T13:54:04.235Z,35.20
2022-08-11T13:59:05.207Z,35.30
2022-08-11T14:04:30.646Z,35.30
2022-08-11T14:09:31.158Z,35.40
2022-08-11T14:14:35.478Z,35.60
2022-08-11T14:19:36.567Z,35.70
2022-08-11T14:24:36.239Z,35.70
2022-08-11T14:29:46.308Z,35.60
2022-08-11T14:34:47.293Z,35.70
2022-08-11T14:39:48.024Z,35.70
2022-08-11T14:45:07.461Z,35.60
2022-08-11T14:50:11.587Z,35.50
2022-08-11T14:55:29.507Z,35.60
2022-08-11T15:00:29.127Z,35.50
2022-08-11T15:05:28.070Z,35.60
2022-08-11T15:10:26.659Z,35.50
2022-08-11T15:15:44.017Z,35.30
2022-08-11T15:21:01.414Z,35.40
2022-08-11T15:26:01.595Z,35.60
2022-08-11T15:31:19.326Z,35.50
2022-08-11T15:36:36.590Z,35.10
2022-08-11T15:41:58.978Z,35.00
2022-08-11T15:47:01.842Z,35.30
2022-08-11T15:52:04.752Z,35.50
2022-08-11T15:57:05.512Z,35.50
2022-08-11T16:02:23.640Z,35.40
2022-08-11T16:07:27.709Z,35.10
2022-08-11T16:12:30.268Z,34.90
2022-08-11T16:17:31.801Z,34.70
2022-08-11T16:22:39.361Z,34.60
2022-08-11T16:27:43.570Z,34.60
2022-08-11T16:32:44.532Z,34.40
2022-08-11T16:38:03.158Z,34.20
2022-08-11T16:43:19.618Z,34.00
2022-08-11T16:48:35.868Z,33.90
2022-08-11T16:53:48.827Z,33.80
2022-08-11T16:59:17.718Z,33.50
2022-08-11T17:04:39.553Z,33.30
2022-08-11T17:09:57.145Z,33.20
2022-08-11T17:14:59.032Z,33.00
2022-08-11T17:20:38.666Z,32.90
2022-08-11T17:25:21.216Z,32.90
2022-08-11T17:30:19.516Z,32.60
2022-08-11T17:35:31.996Z,32.30
2022-08-11T17:40:33.594Z,32.00
2022-08-11T17:45:55.659Z,31.70
2022-08-11T17:50:56.397Z,31.50
2022-08-11T17:56:14.052Z,31.20
2022-08-11T18:01:13.682Z,31.00
2022-08-11T18:06:13.731Z,30.70
2022-08-11T18:12:06.768Z,30.50
2022-08-11T18:17:08.183Z,30.30
2022-08-11T18:22:27.388Z,30.20
2022-08-11T18:27:48.775Z,29.90
2022-08-11T18:33:45.201Z,29.70
2022-08-11T18:38:46.935Z,29.50
2022-08-11T18:44:06.438Z,29.30
2022-08-11T18:49:33.131Z,29.10
2022-08-11T18:55:06.987Z,29.00
2022-08-11T19:00:29.043Z,28.70
2022-08-11T19:06:08.397Z,28.60
2022-08-11T19:11:22.452Z,28.50
2022-08-11T19:16:43.069Z,28.30
2022-08-11T19:22:00.223Z,28.20
2022-08-11T19:27:17.151Z,28.00
2022-08-11T19:32:35.067Z,27.90
2022-08-11T19:37:51.706Z,27.80
2022-08-11T19:43:14.880Z,27.60
2022-08-11T19:48:42.914Z,27.50
2022-08-11T19:53:59.153Z,27.30
2022-08-11T19:59:16.419Z,27.30
2022-08-11T20:04:33.399Z,27.10
2022-08-11T20:10:06.036Z,27.00
2022-08-11T20:15:24.003Z,26.90
2022-08-11T20:20:43.718Z,26.70
2022-08-11T20:26:14.209Z,26.50
2022-08-11T20:31:36.622Z,26.40
2022-08-11T20:36:55.942Z,26.30
2022-08-11T20:42:13.132Z,26.10
2022-08-11T20:47:30.437Z,26.10
2022-08-11T20:52:50.292Z,26.00
2022-08-11T20:58:07.051Z,25.90
2022-08-11T21:03:36.347Z,25.80
2022-08-11T21:09:02.610Z,25.80
2022-08-11T21:14:22.470Z,25.70
2022-08-11T21:20:00.491Z,25.60
2022-08-11T21:25:23.533Z,25.60
2022-08-11T21:30:39.291Z,25.50
2022-08-11T21:35:55.423Z,25.40
2022-08-11T21:41:13.052Z,25.40
2022-08-11T21:46:29.461Z,25.30
2022-08-11T21:51:49.419Z,25.30
2022-08-11T21:57:07.284Z,25.30
2022-08-11T22:02:23.197Z,25.30
2022-08-11T22:07:41.091Z,25.20
2022-08-11T22:12:58.000Z,25.20
2022-08-11T22:18:13.337Z,25.10
2022-08-11T22:23:35.242Z,25.10
2022-08-11T22:28:53.103Z,25.00
2022-08-11T22:34:08.355Z,25.00
2022-08-11T22:39:26.136Z,24.90
2022-08-11T22:44:43.232Z,24.80
2022-08-11T22:50:00.419Z,24.80
2022-08-11T22:55:17.063Z,24.70
2022-08-11T23:00:35.458Z,24.60
2022-08-11T23:05:52.532Z,24.50
2022-08-11T23:11:09.294Z,24.40
2022-08-11T23:16:26.840Z,24.20
2022-08-11T23:21:43.081Z,24.20
2022-08-11T23:27:00.069Z,24.10
2022-08-11T23:32:17.087Z,24.00
2022-08-11T23:37:32.426Z,24.00
2022-08-11T23:42:47.768Z,23.90
2022-08-11T23:48:05.535Z,23.80
2022-08-11T23:53:22.382Z,23.90
2022-08-11T23:58:37.888Z,23.70
